Time;durP1;ratioP1;P1;durP2;ratioP2;P2;SDS_P1;SDS_P2;PMS_P1;PMS_P2;Temp;Humidity;BMP_temperature;BMP_pressure;BME280_temperature;BME280_humidity;BME280_pressure;Samples;Min_cycle;Max_cycle;Signal;HPM_P1;HPM_P2
2022/06/20 00:01:45;;;;;;;16.33;3.60;;;26.30;99.90;;;;;;4921011;29;20047;-48
2022/06/20 00:04:16;;;;;;;14.10;3.03;;;26.30;99.90;;;;;;4915918;29;20084;-56
2022/06/20 00:06:41;;;;;;;14.13;2.97;;;26.30;99.90;;;;;;4929323;29;20036;-53
2022/06/20 00:09:07;;;;;;;9.40;2.58;;;26.40;99.90;;;;;;4928717;29;20024;-53
2022/06/20 00:11:40;;;;;;;14.27;2.90;;;26.40;99.90;;;;;;4931835;29;20075;-47
2022/06/20 00:14:07;;;;;;;11.50;2.63;;;26.40;99.90;;;;;;4923235;29;20027;-44
2022/06/20 00:16:33;;;;;;;15.02;2.60;;;26.40;99.90;;;;;;4929332;29;20028;-52
2022/06/20 00:19:00;;;;;;;14.17;3.00;;;26.40;99.90;;;;;;4935767;29;20042;-50
2022/06/20 00:21:26;;;;;;;10.75;2.80;;;26.50;99.90;;;;;;4940238;29;20479;-52
2022/06/20 00:23:53;;;;;;;16.63;3.47;;;26.50;99.90;;;;;;4933155;29;20114;-49
2022/06/20 00:26:19;;;;;;;12.70;3.10;;;26.50;99.90;;;;;;4930339;29;20036;-50
2022/06/20 00:28:45;;;;;;;13.43;3.20;;;26.50;99.90;;;;;;4935163;29;20040;-51
2022/06/20 00:31:12;;;;;;;9.23;3.08;;;26.60;99.90;;;;;;4931359;29;20024;-47
2022/06/20 00:33:38;;;;;;;13.85;3.17;;;26.60;99.90;;;;;;4916395;29;20028;-47
2022/06/20 00:36:04;;;;;;;13.60;3.15;;;26.60;99.90;;;;;;4921515;29;20032;-47
2022/06/20 00:38:31;;;;;;;10.32;2.80;;;26.70;99.90;;;;;;4929512;29;20028;-49
2022/06/20 00:41:05;;;;;;;12.63;3.08;;;26.70;99.90;;;;;;4924281;29;20071;-48
2022/06/20 00:43:40;;;;;;;8.65;2.80;;;26.70;99.90;;;;;;4919952;29;20028;-48
2022/06/20 00:46:29;;;;;;;11.98;3.30;;;26.70;99.90;;;;;;4924390;29;20480;-48
2022/06/20 00:49:12;;;;;;;17.90;3.42;;;26.70;99.90;;;;;;4933932;29;20028;-54
2022/06/20 00:52:10;;;;;;;13.50;3.25;;;26.70;99.90;;;;;;4901125;29;20539;-54
2022/06/20 00:54:59;;;;;;;11.18;2.80;;;26.70;99.90;;;;;;4843469;29;20117;-54
2022/06/20 00:57:28;;;;;;;11.13;2.88;;;26.60;99.90;;;;;;4917382;29;20479;-56
2022/06/20 01:00:19;;;;;;;18.17;3.55;;;26.50;99.90;;;;;;4926235;23;20159;-56
2022/06/20 01:02:49;;;;;;;9.32;2.90;;;26.50;99.90;;;;;;4915076;29;20036;-56
2022/06/20 01:05:18;;;;;;;14.60;2.83;;;26.40;99.90;;;;;;4928200;29;20042;-56
2022/06/20 01:08:00;;;;;;;11.98;3.10;;;26.40;99.90;;;;;;4914539;29;20039;-56
2022/06/20 01:10:30;;;;;;;13.55;5.43;;;26.40;99.90;;;;;;4915452;29;20028;-55
2022/06/20 01:13:10;;;;;;;12.88;5.07;;;26.40;99.90;;;;;;4921719;29;20032;-56
2022/06/20 01:15:40;;;;;;;22.50;5.40;;;26.40;99.90;;;;;;4920164;29;20396;-57
2022/06/20 01:18:15;;;;;;;13.68;5.13;;;26.40;99.90;;;;;;4934223;29;20417;-56
2022/06/20 01:20:42;;;;;;;13.45;3.90;;;26.40;99.90;;;;;;4919297;29;20056;-57
2022/06/20 01:23:32;;;;;;;12.90;3.55;;;26.40;99.90;;;;;;4914803;29;20152;-56
2022/06/20 01:26:34;;;;;;;10.95;3.63;;;26.40;99.90;;;;;;4912577;29;20060;-57
2022/06/20 01:29:03;;;;;;;11.65;4.25;;;26.30;99.90;;;;;;4911756;29;20016;-57
2022/06/20 01:31:40;;;;;;;17.98;4.35;;;26.40;99.90;;;;;;4915556;29;20095;-56
2022/06/20 01:34:06;;;;;;;14.52;3.03;;;26.30;99.90;;;;;;4906329;29;20103;-56
2022/06/20 01:39:22;;;;;;;8.27;2.83;;;26.30;99.90;;;;;;4904964;29;20487;-55
2022/06/20 01:44:38;;;;;;;14.55;2.70;;;26.30;99.90;;;;;;4930997;29;20030;-55
2022/06/20 01:47:04;;;;;;;11.48;2.95;;;26.30;99.90;;;;;;4934005;29;20031;-56
2022/06/20 01:49:32;;;;;;;13.98;3.85;;;26.30;99.90;;;;;;4919166;29;20507;-56
2022/06/20 01:52:12;;;;;;;12.23;3.28;;;26.20;99.90;;;;;;4922055;29;20388;-55
2022/06/20 01:54:46;;;;;;;12.20;3.17;;;26.20;99.90;;;;;;4919252;29;20468;-56
2022/06/20 01:57:14;;;;;;;17.83;3.38;;;26.20;99.90;;;;;;4914923;29;20401;-56
2022/06/20 02:00:00;;;;;;;;;;;26.10;99.90;;;;;;4939368;23;20059;-54
2022/06/20 02:02:27;;;;;;;16.35;2.85;;;26.20;99.90;;;;;;4922148;29;19914;-53
2022/06/20 02:04:53;;;;;;;;;;;26.10;99.90;;;;;;4947332;29;20042;-54
2022/06/20 02:07:19;;;;;;;12.68;3.05;;;26.10;99.90;;;;;;4920533;29;19915;-54
2022/06/20 02:09:45;;;;;;;14.35;3.70;;;26.10;99.90;;;;;;4933920;29;20091;-53
2022/06/20 02:12:12;;;;;;;13.18;3.60;;;26.10;99.90;;;;;;4930513;29;20032;-54
2022/06/20 02:14:46;;;;;;;11.50;2.33;;;26.10;99.90;;;;;;4914868;29;20059;-54
2022/06/20 02:17:25;;;;;;;17.13;3.33;;;26.10;99.90;;;;;;4914782;29;20040;-55
2022/06/20 02:19:54;;;;;;;10.38;2.90;;;26.00;99.90;;;;;;4923018;29;20107;-55
2022/06/20 02:22:22;;;;;;;11.15;2.95;;;26.00;99.90;;;;;;4919784;29;20032;-54
2022/06/20 02:24:52;;;;;;;12.10;3.55;;;26.00;99.90;;;;;;4933175;29;20106;-54
2022/06/20 02:27:45;;;;;;;18.83;4.95;;;26.00;99.90;;;;;;4933753;29;20087;-53
2022/06/20 02:30:12;;;;;;;12.20;3.05;;;26.00;99.90;;;;;;4886237;29;20036;-54
2022/06/20 02:32:45;;;;;;;13.50;3.40;;;25.90;99.90;;;;;;4914593;29;20028;-54
2022/06/20 02:35:16;;;;;;;15.63;3.50;;;25.90;99.90;;;;;;4897501;29;20035;-55
2022/06/20 02:37:43;;;;;;;21.58;4.03;;;25.90;99.90;;;;;;4914620;29;20465;-54
2022/06/20 02:40:14;;;;;;;15.32;3.67;;;25.90;99.90;;;;;;4915411;29;20025;-54
2022/06/20 02:43:03;;;;;;;14.77;2.78;;;25.90;99.90;;;;;;4903759;29;20172;-55
2022/06/20 02:45:33;;;;;;;10.65;3.05;;;25.90;99.90;;;;;;4923158;29;20488;-55
2022/06/20 02:48:04;;;;;;;10.45;3.70;;;25.80;99.90;;;;;;4946509;29;20130;-55
2022/06/20 02:50:51;;;;;;;12.80;3.67;;;25.70;99.90;;;;;;4920584;29;20432;-55
2022/06/20 02:53:26;;;;;;;15.07;3.58;;;25.80;99.90;;;;;;4933074;29;20039;-55
2022/06/20 02:55:55;;;;;;;9.88;3.55;;;25.70;99.90;;;;;;4914601;29;20515;-55
2022/06/20 02:58:28;;;;;;;13.00;3.53;;;25.80;99.90;;;;;;4925218;29;20035;-54
2022/06/20 03:01:10;;;;;;;17.55;3.47;;;25.70;99.90;;;;;;4965491;23;20077;-55
2022/06/20 03:03:39;;;;;;;10.27;3.40;;;25.80;99.90;;;;;;4960206;28;20038;-56
2022/06/20 03:06:09;;;;;;;16.60;4.88;;;25.80;99.90;;;;;;4942915;28;20497;-55
2022/06/20 03:08:35;;;;;;;13.00;3.45;;;25.70;99.90;;;;;;4954574;28;20055;-55
2022/06/20 03:11:04;;;;;;;9.50;3.05;;;25.80;99.90;;;;;;4934112;28;20118;-56
2022/06/20 03:13:32;;;;;;;14.30;3.15;;;25.80;99.90;;;;;;4946973;29;20332;-55
2022/06/20 03:16:01;;;;;;;17.85;3.70;;;25.80;99.90;;;;;;4944546;29;20023;-56
2022/06/20 03:18:28;;;;;;;12.60;3.30;;;25.80;99.90;;;;;;4949938;28;20039;-55
2022/06/20 03:20:54;;;;;;;15.02;3.60;;;25.80;99.90;;;;;;4949435;28;20412;-55
2022/06/20 03:23:25;;;;;;;10.57;3.40;;;25.80;99.90;;;;;;4943349;28;20039;-55
2022/06/20 03:25:53;;;;;;;12.65;3.60;;;25.80;99.90;;;;;;4954364;28;20099;-55
2022/06/20 03:28:21;;;;;;;10.65;2.95;;;25.80;99.90;;;;;;4966872;28;20475;-55
2022/06/20 03:30:48;;;;;;;16.80;3.60;;;25.80;99.90;;;;;;4941103;28;20365;-55
2022/06/20 03:33:16;;;;;;;11.82;4.05;;;25.90;99.90;;;;;;4936346;29;20031;-56
2022/06/20 03:35:55;;;;;;;17.60;4.05;;;25.90;99.90;;;;;;4936340;28;20024;-55
2022/06/20 03:38:22;;;;;;;13.13;3.95;;;25.80;99.90;;;;;;4951551;28;20023;-55
2022/06/20 03:40:49;;;;;;;12.70;4.72;;;25.90;99.90;;;;;;4963131;28;20035;-55
2022/06/20 03:43:19;;;;;;;12.75;3.78;;;25.90;99.90;;;;;;4941899;29;20231;-55
2022/06/20 03:45:49;;;;;;;15.80;4.15;;;25.90;99.90;;;;;;4955315;28;20115;-55
2022/06/20 03:48:22;;;;;;;12.07;3.03;;;25.90;99.90;;;;;;4954927;28;20451;-56
2022/06/20 03:51:17;;;;;;;11.52;3.47;;;25.80;99.90;;;;;;4949262;28;20023;-56
2022/06/20 03:54:01;;;;;;;14.82;3.90;;;25.80;99.90;;;;;;4938214;28;20119;-56
2022/06/20 03:56:35;;;;;;;15.85;3.97;;;25.80;99.90;;;;;;4946533;28;20039;-55
2022/06/20 03:59:25;;;;;;;10.30;3.03;;;25.80;99.90;;;;;;4949299;28;20050;-55
2022/06/20 04:02:01;;;;;;;9.90;2.60;;;25.80;99.90;;;;;;4945552;28;20067;-55
2022/06/20 04:04:29;;;;;;;14.48;3.92;;;25.80;99.90;;;;;;4954892;28;20460;-55
2022/06/20 04:07:21;;;;;;;8.85;3.50;;;25.80;99.90;;;;;;4947703;28;20036;-56
2022/06/20 04:12:57;;;;;;;9.93;3.10;;;25.90;99.90;;;;;;4952953;28;20098;-56
2022/06/20 04:15:37;;;;;;;12.07;3.00;;;25.90;99.90;;;;;;4935464;28;20480;-56
2022/06/20 04:18:48;;;;;;;9.45;2.97;;;25.90;99.90;;;;;;4935498;28;20447;-56
2022/06/20 04:21:21;;;;;;;10.98;2.95;;;25.90;99.90;;;;;;4921351;28;20038;-56
2022/06/20 04:23:56;;;;;;;11.68;3.85;;;26.00;99.90;;;;;;4946349;28;20038;-56
2022/06/20 04:26:31;;;;;;;14.63;4.30;;;26.00;99.90;;;;;;4961962;28;20042;-56
2022/06/20 04:29:04;;;;;;;9.60;3.30;;;26.10;99.90;;;;;;4949037;28;20056;-56
2022/06/20 04:31:44;;;;;;;8.90;2.75;;;26.10;99.90;;;;;;4940714;28;20031;-55
2022/06/20 04:34:11;;;;;;;7.63;2.80;;;26.10;99.90;;;;;;4943140;29;20035;-56
2022/06/20 04:36:56;;;;;;;8.98;3.25;;;26.10;99.90;;;;;;4934156;28;20028;-56
2022/06/20 04:39:49;;;;;;;10.40;3.38;;;26.00;99.90;;;;;;4937152;29;20391;-56
2022/06/20 04:42:36;;;;;;;12.52;3.55;;;26.10;99.90;;;;;;4935227;29;20088;-55
2022/06/20 04:45:18;;;;;;;11.52;3.50;;;26.10;99.90;;;;;;4934931;28;20523;-56
2022/06/20 04:47:55;;;;;;;7.55;2.67;;;26.20;99.90;;;;;;4947940;28;20465;-56
2022/06/20 04:50:23;;;;;;;15.15;3.28;;;26.10;99.90;;;;;;4930102;29;20491;-56
2022/06/20 04:52:51;;;;;;;13.52;3.58;;;26.10;99.90;;;;;;4935021;28;20019;-56
2022/06/20 04:55:22;;;;;;;10.25;3.53;;;26.10;99.90;;;;;;4948201;28;20023;-57
2022/06/20 04:57:49;;;;;;;8.65;3.30;;;26.00;99.90;;;;;;4943235;28;20479;-57
2022/06/20 05:00:19;;;;;;;11.68;3.13;;;26.00;99.90;;;;;;4954380;28;20043;-57
2022/06/20 05:02:47;;;;;;;12.77;3.30;;;26.00;99.90;;;;;;4973100;28;20031;-57
2022/06/20 05:05:19;;;;;;;8.73;3.75;;;26.00;99.90;;;;;;4933213;29;20027;-57
2022/06/20 05:07:47;;;;;;;11.15;2.78;;;26.10;99.90;;;;;;4949714;28;20031;-57
2022/06/20 05:10:51;;;;;;;8.10;2.60;;;26.10;99.90;;;;;;4951847;28;20575;-56
2022/06/20 05:13:28;;;;;;;13.43;3.55;;;26.20;99.90;;;;;;4934552;28;20032;-55
2022/06/20 05:15:55;;;;;;;15.40;3.08;;;26.30;99.90;;;;;;4946013;28;20118;-56
2022/06/20 05:18:34;;;;;;;11.98;3.10;;;26.30;99.90;;;;;;4938271;28;20399;-56
2022/06/20 05:21:20;;;;;;;4.82;2.38;;;26.40;99.90;;;;;;4963031;28;20570;-56
2022/06/20 05:23:50;;;;;;;7.82;3.00;;;26.50;99.90;;;;;;4936368;28;20059;-56
2022/06/20 05:26:38;;;;;;;11.07;2.47;;;26.50;99.90;;;;;;4943148;28;20172;-56
2022/06/20 05:29:09;;;;;;;11.70;3.53;;;26.60;99.90;;;;;;4966412;28;20054;-56
2022/06/20 05:31:39;;;;;;;8.88;2.67;;;26.70;99.90;;;;;;4934288;28;20062;-56
2022/06/20 05:34:29;;;;;;;13.18;3.50;;;26.70;99.90;;;;;;4933992;28;20024;-56
2022/06/20 05:37:05;;;;;;;11.95;3.47;;;26.80;99.90;;;;;;4934161;29;20108;-56
2022/06/20 05:39:54;;;;;;;12.60;3.90;;;26.70;99.90;;;;;;4949261;28;20034;-57
2022/06/20 05:42:20;;;;;;;11.95;3.58;;;26.80;99.90;;;;;;4934182;28;20020;-55
2022/06/20 05:44:46;;;;;;;9.80;3.10;;;26.80;99.90;;;;;;4950515;29;20023;-55
2022/06/20 05:47:26;;;;;;;13.30;3.55;;;26.80;99.90;;;;;;4945846;29;20063;-55
2022/06/20 05:50:02;;;;;;;9.77;2.90;;;26.90;99.90;;;;;;4948639;28;20163;-55
2022/06/20 05:52:32;;;;;;;7.53;3.25;;;26.90;99.90;;;;;;4938746;29;20032;-55
2022/06/20 05:55:22;;;;;;;14.13;3.15;;;27.00;99.90;;;;;;4946573;28;20034;-55
2022/06/20 05:57:49;;;;;;;8.85;2.47;;;27.00;99.90;;;;;;4939748;29;20094;-55
2022/06/20 06:00:26;;;;;;;11.00;3.33;;;27.00;99.90;;;;;;4952623;28;20039;-55
2022/06/20 06:02:58;;;;;;;12.45;3.03;;;27.00;99.90;;;;;;4918046;29;20070;-55
2022/06/20 06:05:33;;;;;;;9.77;2.95;;;27.00;99.90;;;;;;4943690;28;20061;-55
2022/06/20 06:08:35;;;;;;;10.43;3.10;;;27.10;99.90;;;;;;4941436;29;20039;-56
2022/06/20 06:11:15;;;;;;;8.20;3.45;;;27.00;99.90;;;;;;4934212;29;20023;-57
2022/06/20 06:13:46;;;;;;;11.57;3.47;;;26.90;99.90;;;;;;4944447;28;20109;-57
2022/06/20 06:19:38;;;;;;;15.43;6.82;;;26.80;99.90;;;;;;4940325;29;20029;-56
2022/06/20 06:22:11;;;;;;;13.40;5.47;;;26.70;99.90;;;;;;4936399;28;20039;-56
2022/06/20 06:24:42;;;;;;;11.75;3.67;;;26.60;99.90;;;;;;4941806;28;20027;-56
2022/06/20 06:27:16;;;;;;;13.90;4.05;;;26.60;99.90;;;;;;4952765;29;20039;-58
2022/06/20 06:29:47;;;;;;;18.65;3.85;;;26.50;99.90;;;;;;4940878;28;20519;-59
2022/06/20 06:32:36;;;;;;;15.13;4.43;;;26.40;99.90;;;;;;4933195;29;20383;-59
2022/06/20 06:35:18;;;;;;;15.82;5.28;;;26.30;99.90;;;;;;4934512;29;20042;-58
2022/06/20 06:37:53;;;;;;;13.25;5.15;;;26.30;99.90;;;;;;4939775;29;20032;-58
2022/06/20 06:40:51;;;;;;;13.57;5.68;;;26.20;99.90;;;;;;4934327;29;20502;-59
2022/06/20 06:43:25;;;;;;;17.00;4.30;;;26.10;99.90;;;;;;4932778;29;20107;-58
2022/06/20 06:45:54;;;;;;;12.75;4.50;;;26.10;99.90;;;;;;4915855;29;20030;-59
2022/06/20 06:48:29;;;;;;;16.63;5.20;;;25.90;99.90;;;;;;4932850;29;20372;-59
2022/06/20 06:51:02;;;;;;;14.23;4.15;;;26.00;99.90;;;;;;4917622;29;20393;-59
2022/06/20 06:53:45;;;;;;;12.18;3.20;;;26.00;99.90;;;;;;4950813;29;20027;-59
2022/06/20 06:56:22;;;;;;;11.55;3.22;;;26.00;99.90;;;;;;4951085;29;20468;-59
2022/06/20 06:58:58;;;;;;;;;;;25.90;99.90;;;;;;4947344;28;20093;-49
2022/06/20 07:01:31;;;;;;;10.98;3.30;;;25.90;99.90;;;;;;4947914;29;19974;-57
2022/06/20 07:04:10;;;;;;;11.10;2.67;;;25.80;99.90;;;;;;4949573;29;20028;-57
2022/06/20 07:06:45;;;;;;;8.43;1.88;;;25.80;99.90;;;;;;4936279;29;20031;-56
2022/06/20 07:09:14;;;;;;;11.02;2.53;;;25.70;99.90;;;;;;4938511;29;20072;-57
2022/06/20 07:11:48;;;;;;;13.65;2.30;;;25.70;99.90;;;;;;4936496;29;20031;-57
2022/06/20 07:14:22;;;;;;;6.85;1.52;;;25.60;99.90;;;;;;4940427;29;20031;-57
2022/06/20 07:16:54;;;;;;;13.93;2.05;;;25.70;99.90;;;;;;4942526;29;20028;-58
2022/06/20 07:19:20;;;;;;;5.30;1.55;;;25.70;99.90;;;;;;4936034;29;20012;-57
2022/06/20 07:21:47;;;;;;;13.43;2.53;;;25.70;99.90;;;;;;4962774;28;20057;-57
2022/06/20 07:24:17;;;;;;;12.60;2.47;;;25.70;99.90;;;;;;4940192;29;20439;-57
2022/06/20 07:26:51;;;;;;;13.15;1.85;;;25.70;99.90;;;;;;4946124;29;20444;-56
2022/06/20 07:29:23;;;;;;;5.18;1.58;;;25.70;99.90;;;;;;4942334;29;20039;-53
2022/06/20 07:31:55;;;;;;;7.53;1.83;;;25.70;99.90;;;;;;4947614;29;20034;-53
2022/06/20 07:34:36;;;;;;;9.43;2.35;;;25.80;99.90;;;;;;4949818;28;20105;-55
2022/06/20 07:37:18;;;;;;;12.00;1.90;;;25.80;99.90;;;;;;4952558;29;20028;-55
2022/06/20 07:40:16;;;;;;;6.90;1.58;;;25.80;99.90;;;;;;4948756;29;20032;-54
2022/06/20 07:43:00;;;;;;;9.00;3.20;;;25.80;99.90;;;;;;4940036;29;20395;-55
2022/06/20 07:45:32;;;;;;;7.05;3.03;;;25.80;99.90;;;;;;4949393;29;20035;-55
2022/06/20 07:48:23;;;;;;;9.68;2.55;;;25.90;99.90;;;;;;4945690;29;20035;-55
2022/06/20 07:51:09;;;;;;;6.47;2.00;;;25.90;99.90;;;;;;4935819;29;20046;-55
2022/06/20 07:53:56;;;;;;;9.23;2.20;;;25.90;99.90;;;;;;4950844;29;20034;-55
2022/06/20 07:56:47;;;;;;;5.18;1.95;;;25.90;99.90;;;;;;4941575;29;20480;-55
2022/06/20 07:59:19;;;;;;;6.65;2.13;;;26.00;99.90;;;;;;4938223;29;20059;-55
2022/06/20 08:01:54;;;;;;;9.43;2.20;;;26.00;99.90;;;;;;4951509;28;20459;-55
2022/06/20 08:04:28;;;;;;;7.30;2.42;;;26.00;99.90;;;;;;4948673;29;20054;-55
2022/06/20 08:07:28;;;;;;;9.10;2.20;;;26.00;99.90;;;;;;4947926;28;20109;-56
2022/06/20 08:10:05;;;;;;;9.57;3.30;;;26.10;99.90;;;;;;4944226;28;20086;-55
2022/06/20 08:12:41;;;;;;;7.65;2.15;;;26.10;99.90;;;;;;4930740;29;20431;-56
2022/06/20 08:15:27;;;;;;;6.93;2.17;;;26.20;99.90;;;;;;4945081;29;20024;-56
2022/06/20 08:17:53;;;;;;;6.22;2.78;;;26.20;99.90;;;;;;4947118;29;20031;-56
2022/06/20 08:20:21;;;;;;;8.80;2.90;;;26.20;99.90;;;;;;4950926;29;20440;-56
2022/06/20 08:22:53;;;;;;;;;;;26.20;99.90;;;;;;4935433;28;20110;-56
2022/06/20 08:25:25;;;;;;;11.27;2.85;;;26.20;99.90;;;;;;4948280;28;19910;-55
2022/06/20 08:28:11;;;;;;;10.77;3.00;;;26.30;99.90;;;;;;4941456;28;20038;-56
2022/06/20 08:30:59;;;;;;;8.82;2.90;;;26.30;99.90;;;;;;4940436;28;20383;-55
2022/06/20 09:03:40;;;;;;;8.50;3.03;;;26.10;99.90;;;;;;5012008;28;20431;-54
2022/06/20 09:06:18;;;;;;;10.55;2.70;;;26.30;99.90;;;;;;5008446;28;20046;-53
2022/06/20 09:08:46;;;;;;;11.98;2.72;;;26.40;99.90;;;;;;5008308;28;20088;-54
2022/06/20 09:11:18;;;;;;;9.95;3.03;;;26.40;99.90;;;;;;5007031;28;20084;-55
2022/06/20 09:14:09;;;;;;;12.27;2.65;;;26.40;99.90;;;;;;5008125;28;20033;-53
2022/06/20 09:16:41;;;;;;;8.55;3.00;;;26.50;99.90;;;;;;5008353;28;20022;-53
2022/06/20 09:20:08;;;;;;;7.85;2.65;;;26.60;99.90;;;;;;5008201;28;20037;-54
2022/06/20 09:22:46;;;;;;;6.05;2.30;;;26.60;99.90;;;;;;4947590;29;20098;-54
2022/06/20 09:25:23;;;;;;;7.00;2.42;;;26.60;99.90;;;;;;5000568;28;20038;-54
2022/06/20 09:28:14;;;;;;;7.85;2.33;;;26.60;99.90;;;;;;5008202;28;20108;-54
2022/06/20 09:30:43;;;;;;;9.63;2.38;;;26.60;99.90;;;;;;5007909;28;20014;-55
2022/06/20 09:33:34;;;;;;;9.90;2.10;;;26.60;99.90;;;;;;5008014;28;20125;-54
2022/06/20 09:36:09;;;;;;;9.98;2.28;;;26.60;99.90;;;;;;5007770;28;20018;-54
2022/06/20 09:39:22;;;;;;;10.93;2.35;;;26.60;99.90;;;;;;5007945;28;20056;-54
2022/06/20 09:41:57;;;;;;;5.55;1.75;;;26.60;99.90;;;;;;5007460;28;20141;-55
2022/06/20 09:44:48;;;;;;;5.90;1.50;;;26.70;99.90;;;;;;5007808;28;20022;-54
2022/06/20 09:47:46;;;;;;;8.00;1.63;;;26.70;99.90;;;;;;5008034;28;20083;-54
2022/06/20 09:50:21;;;;;;;6.53;1.45;;;26.70;99.90;;;;;;5003473;28;20093;-54
2022/06/20 09:53:03;;;;;;;7.55;2.00;;;26.70;99.90;;;;;;5007623;28;20030;-53
2022/06/20 09:55:58;;;;;;;8.55;3.67;;;26.70;99.90;;;;;;5007553;28;20029;-53
2022/06/20 09:58:40;;;;;;;19.95;7.55;;;26.80;99.90;;;;;;5007842;28;20033;-53
2022/06/20 10:01:13;;;;;;;10.18;6.15;;;26.80;99.90;;;;;;4990548;28;20030;-54
2022/06/20 10:04:22;;;;;;;12.52;5.68;;;26.80;99.90;;;;;;4997554;28;20027;-54
2022/06/20 10:06:47;;;;;;;9.18;4.80;;;26.90;99.90;;;;;;4993683;28;20054;-53
2022/06/20 10:09:37;;;;;;;14.30;4.28;;;26.90;99.90;;;;;;4994379;28;20129;-54
2022/06/20 10:12:27;;;;;;;9.73;4.25;;;26.90;99.90;;;;;;4994179;28;20037;-54
2022/06/20 10:15:14;;;;;;;6.90;3.33;;;27.00;99.90;;;;;;4994195;28;20027;-53
2022/06/20 10:17:57;;;;;;;7.88;2.85;;;27.00;99.90;;;;;;4993958;28;20395;-53
2022/06/20 10:20:53;;;;;;;7.57;2.70;;;27.00;99.90;;;;;;4994153;28;20023;-53
2022/06/20 10:23:41;;;;;;;4.30;2.42;;;27.00;99.90;;;;;;4982022;28;20019;-52
2022/06/20 10:26:21;;;;;;;5.35;2.00;;;27.10;99.90;;;;;;4993993;28;20484;-53
2022/06/20 10:29:10;;;;;;;5.00;1.83;;;27.10;99.90;;;;;;4994138;28;20089;-53
2022/06/20 10:31:42;;;;;;;8.45;1.90;;;27.20;99.90;;;;;;4989963;28;20042;-53
2022/06/20 10:34:21;;;;;;;8.10;1.80;;;27.20;99.90;;;;;;4993870;28;20030;-53
2022/06/20 10:36:53;;;;;;;10.68;2.60;;;27.30;99.90;;;;;;4993854;28;20113;-55
2022/06/20 10:39:54;;;;;;;6.35;2.30;;;27.30;99.90;;;;;;4993165;28;20022;-54
2022/06/20 10:42:22;;;;;;;9.18;1.40;;;27.30;99.90;;;;;;4993532;28;20392;-55
2022/06/20 10:45:06;;;;;;;6.95;1.90;;;27.30;99.90;;;;;;4993765;28;20018;-55
2022/06/20 10:47:40;;;;;;;5.22;1.40;;;27.30;99.90;;;;;;4993472;28;20085;-55
2022/06/20 10:50:35;;;;;;;7.88;1.73;;;27.20;99.90;;;;;;4993649;28;20050;-56
2022/06/20 10:53:26;;;;;;;12.20;1.70;;;27.30;99.90;;;;;;4992984;28;20443;-55
2022/06/20 10:56:04;;;;;;;9.63;2.10;;;27.30;99.90;;;;;;4993482;28;20034;-54
2022/06/20 10:59:03;;;;;;;16.42;1.83;;;27.30;99.90;;;;;;4992349;28;20118;-55
2022/06/20 11:01:52;;;;;;;14.07;2.00;;;27.30;99.90;;;;;;4978558;28;20434;-55
2022/06/20 11:04:59;;;;;;;5.30;1.55;;;27.30;99.90;;;;;;4974756;28;20499;-56
2022/06/20 11:07:54;;;;;;;8.20;1.30;;;27.30;99.90;;;;;;4985146;28;20058;-55
2022/06/20 11:10:29;;;;;;;14.27;2.53;;;27.30;99.90;;;;;;4975432;28;20031;-55
2022/06/20 11:13:25;;;;;;;11.50;2.10;;;27.40;99.90;;;;;;4976583;28;20039;-55
2022/06/20 11:16:21;;;;;;;9.38;1.88;;;27.40;99.90;;;;;;4999308;28;20026;-54
2022/06/20 11:19:24;;;;;;;22.37;2.20;;;27.40;99.90;;;;;;4987830;28;20042;-49
2022/06/20 11:22:33;;;;;;;9.18;3.20;;;27.40;99.90;;;;;;4975666;28;20050;-50
2022/06/20 11:25:16;;;;;;;13.88;3.63;;;27.40;99.90;;;;;;5004084;28;20033;-49
2022/06/20 11:28:18;;;;;;;13.73;3.95;;;27.40;99.90;;;;;;4992573;28;20038;-48
2022/06/20 11:31:15;;;;;;;15.13;3.78;;;27.50;99.90;;;;;;4984048;28;20122;-49
2022/06/20 11:34:01;;;;;;;13.70;2.78;;;27.50;99.90;;;;;;4976477;28;20483;-48
2022/06/20 11:37:02;;;;;;;8.00;2.47;;;27.50;99.90;;;;;;4972228;28;20102;-48
2022/06/20 11:39:43;;;;;;;8.18;1.77;;;27.60;99.90;;;;;;4972035;28;20077;-48
2022/06/20 11:42:09;;;;;;;9.93;1.95;;;27.60;99.90;;;;;;4972026;28;20449;-52
2022/06/20 11:44:43;;;;;;;18.02;2.28;;;27.60;99.90;;;;;;4972278;28;20113;-52
2022/06/20 11:47:15;;;;;;;10.13;2.78;;;27.70;99.90;;;;;;4971975;28;20023;-54
2022/06/20 11:50:03;;;;;;;11.38;2.33;;;27.70;99.90;;;;;;4971788;28;20102;-55
2022/06/20 11:52:44;;;;;;;14.32;2.45;;;27.70;99.90;;;;;;4971921;28;20038;-55
2022/06/20 11:55:19;;;;;;;10.73;2.53;;;27.70;99.90;;;;;;4971943;28;20054;-55
2022/06/20 11:57:45;;;;;;;11.52;2.40;;;27.70;99.90;;;;;;4971738;28;20027;-54
2022/06/20 12:00:20;;;;;;;6.88;2.03;;;27.80;99.90;;;;;;4977271;28;20033;-54
2022/06/20 12:03:19;;;;;;;8.80;1.90;;;27.90;99.90;;;;;;4988362;28;20492;-53
2022/06/20 12:06:01;;;;;;;9.98;2.15;;;27.90;99.90;;;;;;4991343;28;20110;-51
2022/06/20 12:08:39;;;;;;;12.18;2.90;;;28.00;99.90;;;;;;4990570;28;20022;-50
2022/06/20 12:11:46;;;;;;;8.35;3.80;;;28.00;99.90;;;;;;4991159;28;20027;-53
2022/06/20 12:14:26;;;;;;;9.38;3.92;;;28.00;99.90;;;;;;4981141;28;20038;-50
2022/06/20 12:17:07;;;;;;;7.35;3.67;;;28.00;99.90;;;;;;4992703;28;20105;-53
2022/06/20 12:26:29;;;;;;;9.85;3.33;;;28.10;99.90;;;;;;4980591;28;20054;-54
2022/06/20 12:28:56;;;;;;;8.38;2.53;;;28.20;99.90;;;;;;4981770;28;20022;-53
2022/06/20 12:31:31;;;;;;;12.43;2.78;;;28.10;99.90;;;;;;4991207;28;20383;-54
2022/06/20 12:34:07;;;;;;;11.43;2.88;;;28.10;99.90;;;;;;4991725;28;20026;-54
2022/06/20 12:36:43;;;;;;;9.85;2.83;;;28.10;99.90;;;;;;4991429;28;20019;-51
2022/06/20 12:39:30;;;;;;;15.77;3.30;;;28.10;99.90;;;;;;5001029;28;20550;-48
2022/06/20 12:42:34;;;;;;;10.90;2.42;;;28.10;99.90;;;;;;4990967;28;20029;-50
2022/06/20 12:45:19;;;;;;;8.90;2.38;;;28.10;99.90;;;;;;4983083;28;20062;-52
2022/06/20 12:47:57;;;;;;;10.95;2.60;;;28.00;99.90;;;;;;4997674;28;20034;-49
2022/06/20 12:50:26;;;;;;;7.63;2.63;;;28.00;99.90;;;;;;4978173;28;20029;-49
2022/06/20 12:53:00;;;;;;;8.77;3.10;;;28.00;99.90;;;;;;4990490;28;20664;-49
2022/06/20 12:56:05;;;;;;;14.07;3.38;;;28.00;99.90;;;;;;4993182;28;20033;-50
2022/06/20 12:58:45;;;;;;;15.40;3.60;;;28.00;99.90;;;;;;4992983;28;20387;-51
2022/06/20 13:01:19;;;;;;;7.28;2.65;;;28.00;99.90;;;;;;4991398;28;20042;-52
2022/06/20 13:04:00;;;;;;;10.57;3.95;;;27.90;99.90;;;;;;5000989;28;20105;-54
2022/06/20 13:06:47;;;;;;;10.43;3.40;;;28.00;99.90;;;;;;4991085;28;20446;-54
2022/06/20 13:09:15;;;;;;;;;;;28.00;99.90;;;;;;4991640;28;20026;-56
2022/06/20 13:12:01;;;;;;;14.13;3.08;;;28.00;99.90;;;;;;4989815;28;19918;-54
2022/06/20 13:14:48;;;;;;;10.90;3.00;;;28.00;99.90;;;;;;4997053;28;20426;-55
2022/06/20 13:17:23;;;;;;;12.57;2.92;;;28.00;99.90;;;;;;4977943;28;20027;-53
2022/06/20 13:19:54;;;;;;;7.80;2.30;;;28.10;99.90;;;;;;4991274;28;20068;-53
2022/06/20 13:22:40;;;;;;;10.77;2.65;;;28.10;99.90;;;;;;4977728;28;20022;-53
2022/06/20 13:25:39;;;;;;;29.70;4.18;;;28.10;99.90;;;;;;4991193;28;20089;-58
2022/06/20 13:28:22;;;;;;;16.58;2.38;;;28.10;99.90;;;;;;4989002;28;20038;-56
2022/06/20 13:31:06;;;;;;;12.52;3.40;;;28.10;99.90;;;;;;4988869;28;20030;-53
2022/06/20 13:34:01;;;;;;;10.07;3.55;;;28.10;99.90;;;;;;4989529;28;20492;-54
2022/06/20 13:37:09;;;;;;;12.02;3.45;;;28.10;99.90;;;;;;4988181;28;20034;-56
2022/06/20 13:39:46;;;;;;;9.75;2.70;;;28.10;99.90;;;;;;4974074;28;20037;-56
2022/06/20 13:42:32;;;;;;;12.23;2.60;;;28.10;99.90;;;;;;4992844;28;20018;-55
2022/06/20 13:45:10;;;;;;;16.17;3.15;;;28.10;99.90;;;;;;4993744;28;21443;-55
2022/06/20 13:47:51;;;;;;;9.23;2.80;;;28.10;99.90;;;;;;4993520;28;20022;-56
2022/06/20 13:50:53;;;;;;;13.35;2.95;;;28.10;99.90;;;;;;4991862;28;20026;-55
2022/06/20 13:53:25;;;;;;;10.10;3.13;;;28.10;99.90;;;;;;4987545;28;20052;-56
2022/06/20 13:55:59;;;;;;;8.55;1.80;;;28.10;99.90;;;;;;4992192;28;20361;-56
2022/06/20 13:58:25;;;;;;;10.65;2.50;;;28.20;99.90;;;;;;4997686;28;20037;-56
2022/06/20 14:01:04;;;;;;;7.88;2.35;;;28.30;99.90;;;;;;4992581;28;20014;-56
2022/06/20 14:03:47;;;;;;;17.98;3.67;;;28.30;99.90;;;;;;4993738;28;20035;-55
2022/06/20 14:06:17;;;;;;;15.00;3.22;;;28.20;99.90;;;;;;4972830;28;20496;-54
2022/06/20 14:08:51;;;;;;;13.00;2.53;;;28.10;99.90;;;;;;4973534;28;20381;-55
2022/06/20 14:11:40;;;;;;;11.48;2.70;;;28.10;99.90;;;;;;4973793;28;20027;-54
2022/06/20 14:14:35;;;;;;;6.85;1.88;;;28.10;99.90;;;;;;4974080;28;20026;-54
2022/06/20 14:17:12;;;;;;;13.18;2.75;;;28.00;99.90;;;;;;4973856;28;20072;-54
2022/06/20 14:19:44;;;;;;;11.40;2.97;;;27.90;99.90;;;;;;4973996;28;20019;-53
2022/06/20 14:22:21;;;;;;;15.27;2.92;;;27.90;99.90;;;;;;4974741;28;20027;-54
2022/06/20 14:24:50;;;;;;;8.38;2.10;;;27.80;99.90;;;;;;4974813;28;20472;-53
2022/06/20 14:27:23;;;;;;;10.70;3.13;;;27.70;99.90;;;;;;4974816;28;20081;-53